Time;durP1;ratioP1;P1;durP2;ratioP2;P2;SDS_P1;SDS_P2;PMS_P1;PMS_P2;Temp;Humidity;BMP_temperature;BMP_pressure;BME280_temperature;BME280_humidity;BME280_pressure;Samples;Min_cycle;Max_cycle;Signal;HPM_P1;HPM_P2
2023/12/20 00:01:32;;;;;;;7.30;6.00;;;6.90;99.90;;;;;;4929321;29;20532;-61
2023/12/20 00:03:58;;;;;;;7.20;5.10;;;7.00;99.90;;;;;;4921362;29;20433;-61
2023/12/20 00:06:23;;;;;;;5.90;4.77;;;7.00;99.90;;;;;;4922102;29;20215;-62
2023/12/20 00:08:49;;;;;;;7.70;5.90;;;7.10;99.90;;;;;;4925580;29;20635;-61
2023/12/20 00:11:15;;;;;;;5.80;4.87;;;7.00;99.90;;;;;;4931077;29;20199;-63
2023/12/20 00:13:40;;;;;;;6.77;6.07;;;7.00;99.90;;;;;;4920375;29;20216;-61
2023/12/20 00:16:06;;;;;;;7.20;6.50;;;6.90;99.90;;;;;;4932228;29;20192;-62
2023/12/20 00:18:31;;;;;;;6.80;5.60;;;6.90;99.90;;;;;;4928629;29;20293;-62
2023/12/20 00:20:57;;;;;;;5.43;4.93;;;7.00;99.90;;;;;;4928038;29;20190;-62
2023/12/20 00:23:23;;;;;;;6.90;5.83;;;7.00;99.90;;;;;;4932091;29;20272;-60
2023/12/20 00:25:49;;;;;;;7.40;5.90;;;7.00;99.90;;;;;;4932469;29;20212;-62
2023/12/20 00:28:14;;;;;;;6.70;6.00;;;7.00;99.90;;;;;;4924703;29;21002;-63
2023/12/20 00:30:40;;;;;;;5.57;4.97;;;6.90;99.90;;;;;;4932780;29;20180;-62
2023/12/20 00:33:05;;;;;;;6.23;5.60;;;7.00;99.90;;;;;;4922060;29;20186;-61
2023/12/20 00:35:31;;;;;;;7.10;5.20;;;7.00;99.90;;;;;;4928959;29;20547;-62
2023/12/20 00:37:57;;;;;;;6.70;5.40;;;6.90;99.90;;;;;;4922543;29;20232;-63
2023/12/20 00:40:23;;;;;;;7.50;5.90;;;6.90;99.90;;;;;;4924891;29;20235;-63
2023/12/20 00:42:49;;;;;;;6.20;5.17;;;7.00;99.90;;;;;;4920026;29;20472;-62
2023/12/20 00:45:15;;;;;;;5.37;4.83;;;7.00;99.90;;;;;;4925021;29;20546;-62
2023/12/20 00:47:40;;;;;;;6.50;5.70;;;7.00;99.90;;;;;;4930170;29;20188;-60
2023/12/20 00:50:07;;;;;;;5.60;5.10;;;7.00;99.90;;;;;;4925126;29;20223;-61
2023/12/20 00:52:32;;;;;;;6.70;5.83;;;7.00;99.90;;;;;;4924996;29;20171;-64
2023/12/20 00:54:58;;;;;;;6.97;6.27;;;7.00;99.90;;;;;;4922764;29;20434;-62
2023/12/20 00:57:24;;;;;;;5.03;4.53;;;7.00;99.90;;;;;;4924616;29;20295;-61
2023/12/20 00:59:49;;;;;;;5.70;5.20;;;7.00;99.90;;;;;;4918153;29;20573;-62
2023/12/20 01:02:15;;;;;;;6.80;5.30;;;7.00;99.90;;;;;;4924055;29;20194;-61
2023/12/20 01:04:40;;;;;;;5.43;4.90;;;7.00;99.90;;;;;;4924194;29;20537;-62
2023/12/20 01:07:06;;;;;;;6.23;5.27;;;6.90;99.90;;;;;;4922671;29;20185;-62
2023/12/20 01:09:31;;;;;;;8.53;6.37;;;7.00;99.90;;;;;;4924253;29;20292;-62
2023/12/20 01:11:57;;;;;;;7.60;6.17;;;7.00;99.90;;;;;;4920047;29;20652;-63
2023/12/20 01:14:22;;;;;;;6.67;5.97;;;7.10;99.90;;;;;;4925236;29;20204;-62
2023/12/20 01:16:48;;;;;;;6.83;5.43;;;7.00;99.90;;;;;;4925233;29;20176;-63
2023/12/20 01:19:14;;;;;;;6.60;5.90;;;6.90;99.90;;;;;;4923817;29;20267;-63
2023/12/20 01:21:40;;;;;;;7.43;5.80;;;7.00;99.90;;;;;;4923915;29;20185;-63
2023/12/20 01:24:06;;;;;;;6.60;5.90;;;7.00;99.90;;;;;;4931560;29;20418;-60
2023/12/20 01:26:31;;;;;;;6.67;5.60;;;7.00;99.90;;;;;;4920136;29;20592;-63
2023/12/20 01:28:57;;;;;;;6.97;5.93;;;7.00;99.90;;;;;;4932017;29;20489;-62
2023/12/20 01:31:23;;;;;;;6.77;6.07;;;7.00;99.90;;;;;;4929369;29;20185;-59
2023/12/20 01:33:48;;;;;;;6.50;5.90;;;7.00;99.90;;;;;;4918359;29;20188;-62
2023/12/20 01:36:14;;;;;;;6.67;5.50;;;7.00;99.90;;;;;;4923992;29;20547;-63
2023/12/20 01:38:40;;;;;;;7.70;6.40;;;7.10;99.90;;;;;;4928070;29;20348;-63
2023/12/20 01:41:05;;;;;;;9.03;5.87;;;7.00;99.90;;;;;;4930282;29;20176;-60
2023/12/20 01:43:31;;;;;;;7.17;5.60;;;7.10;99.90;;;;;;4923095;29;20560;-62
2023/12/20 01:45:57;;;;;;;5.50;4.80;;;7.00;99.90;;;;;;4919396;29;20276;-62
2023/12/20 01:48:27;;;;;;;5.23;4.70;;;7.00;99.90;;;;;;4924980;29;20263;-62
2023/12/20 01:50:54;;;;;;;5.50;5.00;;;7.00;99.90;;;;;;4934264;29;20438;-62
2023/12/20 01:53:24;;;;;;;7.00;5.70;;;6.90;99.90;;;;;;4933083;29;20788;-62
2023/12/20 01:55:52;;;;;;;7.53;5.57;;;7.00;99.90;;;;;;4923805;29;20472;-62
2023/12/20 01:58:18;;;;;;;5.67;5.10;;;7.00;99.90;;;;;;4923116;29;20440;-63
2023/12/20 02:00:44;;;;;;;6.00;4.80;;;7.10;99.90;;;;;;4922099;29;20872;-63
2023/12/20 02:03:10;;;;;;;4.77;4.27;;;7.00;99.90;;;;;;4932094;29;20749;-63
2023/12/20 02:05:36;;;;;;;4.53;4.13;;;6.90;99.90;;;;;;4926675;29;20469;-63
2023/12/20 02:08:03;;;;;;;3.83;3.43;;;6.90;99.90;;;;;;4933063;29;20605;-62
2023/12/20 02:10:29;;;;;;;4.30;3.47;;;6.90;99.90;;;;;;4929842;29;20420;-62
2023/12/20 02:12:54;;;;;;;5.27;4.60;;;6.90;99.90;;;;;;4923318;29;20787;-63
2023/12/20 02:15:20;;;;;;;4.83;3.43;;;6.90;99.90;;;;;;4928172;29;20423;-63
2023/12/20 02:17:48;;;;;;;5.73;3.57;;;6.90;99.90;;;;;;4927345;29;20203;-63
2023/12/20 02:20:14;;;;;;;6.50;2.93;;;6.90;99.90;;;;;;4934070;29;20958;-63
2023/12/20 02:22:40;;;;;;;3.30;2.80;;;6.80;99.90;;;;;;4930231;29;20512;-63
2023/12/20 02:25:06;;;;;;;4.73;1.80;;;6.80;99.90;;;;;;4923201;29;20535;-62
2023/12/20 02:27:31;;;;;;;4.43;1.67;;;6.70;99.90;;;;;;4928222;29;20576;-63
2023/12/20 02:29:57;;;;;;;2.53;2.27;;;6.70;99.90;;;;;;4923549;29;20522;-62
2023/12/20 02:32:27;;;;;;;2.83;1.37;;;6.70;99.90;;;;;;4928083;29;20270;-62
2023/12/20 02:34:53;;;;;;;2.40;2.07;;;6.70;99.90;;;;;;4923476;29;20435;-63
2023/12/20 02:37:18;;;;;;;3.40;2.23;;;6.70;99.90;;;;;;4927874;29;20426;-63
2023/12/20 02:39:44;;;;;;;2.77;2.53;;;6.70;99.90;;;;;;4922760;29;20483;-63
2023/12/20 02:42:09;;;;;;;3.20;2.70;;;6.70;99.90;;;;;;4923212;29;20203;-63
2023/12/20 02:44:36;;;;;;;4.60;2.90;;;6.80;99.90;;;;;;4927658;29;20179;-63
2023/12/20 02:47:02;;;;;;;3.13;2.73;;;6.80;99.90;;;;;;4924470;29;20201;-63
2023/12/20 02:49:27;;;;;;;3.23;2.90;;;6.80;99.90;;;;;;4927338;29;20448;-62
2023/12/20 02:51:53;;;;;;;3.03;2.30;;;6.80;99.90;;;;;;4922576;29;20500;-62
2023/12/20 02:54:18;;;;;;;4.10;3.70;;;6.80;99.90;;;;;;4929893;29;20654;-63
2023/12/20 02:56:44;;;;;;;3.30;3.00;;;6.80;99.90;;;;;;4920441;29;20176;-62
2023/12/20 02:59:09;;;;;;;5.80;4.10;;;6.80;99.90;;;;;;4919888;29;20296;-62
2023/12/20 03:01:41;;;;;;;5.60;4.03;;;6.80;99.90;;;;;;4924637;29;20248;-62
2023/12/20 03:04:06;;;;;;;6.43;4.30;;;6.90;99.90;;;;;;4927913;29;20188;-63
2023/12/20 03:06:32;;;;;;;4.57;3.70;;;6.90;99.90;;;;;;4919514;29;21055;-63
2023/12/20 03:08:57;;;;;;;5.83;4.03;;;6.80;99.90;;;;;;4927113;29;20214;-62
2023/12/20 03:11:27;;;;;;;6.60;3.50;;;6.80;99.90;;;;;;4918765;29;20188;-63
2023/12/20 03:13:53;;;;;;;4.07;3.67;;;6.80;99.90;;;;;;4924187;29;20168;-64
2023/12/20 03:16:18;;;;;;;5.77;3.90;;;6.80;99.90;;;;;;4926797;29;20519;-62
2023/12/20 03:18:44;;;;;;;4.23;3.70;;;6.70;99.90;;;;;;4920777;29;20695;-63
2023/12/20 03:21:09;;;;;;;5.43;3.77;;;6.70;99.90;;;;;;4926061;29;20583;-62
2023/12/20 03:23:35;;;;;;;6.33;3.40;;;6.70;99.90;;;;;;4920245;29;20191;-65
2023/12/20 03:26:01;;;;;;;4.37;2.90;;;6.70;99.90;;;;;;4925308;29;20222;-63
2023/12/20 03:28:27;;;;;;;3.50;2.90;;;6.70;99.90;;;;;;4917746;29;20291;-62
2023/12/20 03:30:53;;;;;;;3.60;2.50;;;6.70;99.90;;;;;;4924051;29;20198;-62
2023/12/20 03:33:18;;;;;;;2.83;2.40;;;6.70;99.90;;;;;;4924975;29;20413;-62
2023/12/20 03:35:44;;;;;;;6.70;2.30;;;6.70;99.90;;;;;;4922043;29;20180;-62
2023/12/20 03:38:10;;;;;;;3.90;2.83;;;6.70;99.90;;;;;;4918140;29;20209;-63
2023/12/20 03:40:35;;;;;;;5.63;3.20;;;6.70;99.90;;;;;;4919391;29;20181;-63
2023/12/20 03:43:01;;;;;;;4.20;2.90;;;6.70;99.90;;;;;;4924515;29;20229;-63
2023/12/20 03:45:26;;;;;;;4.03;2.70;;;6.60;99.90;;;;;;4917551;29;20215;-62
2023/12/20 03:47:56;;;;;;;4.10;2.97;;;6.60;99.90;;;;;;4922893;29;20557;-61
2023/12/20 03:50:22;;;;;;;2.80;1.83;;;6.60;99.90;;;;;;4925644;29;20181;-63
2023/12/20 03:52:48;;;;;;;5.73;3.07;;;6.60;99.90;;;;;;4927605;29;20514;-62
2023/12/20 03:55:15;;;;;;;3.10;2.30;;;6.60;99.90;;;;;;4919017;29;20452;-63
2023/12/20 03:57:40;;;;;;;4.73;2.37;;;6.60;99.90;;;;;;4921791;29;20180;-62
2023/12/20 04:00:10;;;;;;;7.43;3.53;;;6.50;99.90;;;;;;4924497;29;20527;-63
2023/12/20 04:02:40;;;;;;;3.77;2.30;;;6.50;99.90;;;;;;4916741;29;20264;-63
2023/12/20 04:05:06;;;;;;;7.57;2.80;;;6.50;99.90;;;;;;4923412;29;20542;-63
2023/12/20 04:07:32;;;;;;;5.70;2.17;;;6.50;99.90;;;;;;4925749;29;20444;-63
2023/12/20 04:09:57;;;;;;;4.80;2.17;;;6.50;99.90;;;;;;4922946;29;20482;-62
2023/12/20 04:12:23;;;;;;;4.37;2.23;;;6.40;99.90;;;;;;4924713;29;20172;-62
2023/12/20 04:14:49;;;;;;;6.53;1.93;;;6.40;99.90;;;;;;4920159;29;20256;-63
2023/12/20 04:17:16;;;;;;;4.37;2.07;;;6.40;99.90;;;;;;4928964;29;20207;-63
2023/12/20 04:19:42;;;;;;;6.37;2.30;;;6.40;99.90;;;;;;4928867;29;20544;-62
2023/12/20 04:22:07;;;;;;;7.80;2.30;;;6.30;99.90;;;;;;4928578;29;20461;-63
2023/12/20 04:24:33;;;;;;;5.80;1.80;;;6.30;99.90;;;;;;4919026;29;20444;-62
2023/12/20 04:26:58;;;;;;;7.23;2.33;;;6.20;99.90;;;;;;4923083;29;20752;-63
2023/12/20 04:29:24;;;;;;;3.97;1.80;;;6.20;99.90;;;;;;4926908;29;20214;-63
2023/12/20 04:31:51;;;;;;;2.90;1.90;;;6.20;99.90;;;;;;4923592;29;20181;-62
2023/12/20 04:34:17;;;;;;;2.93;1.80;;;6.10;99.90;;;;;;4929149;29;20541;-63
2023/12/20 04:36:43;;;;;;;11.37;2.30;;;6.10;99.90;;;;;;4928863;29;20482;-63
2023/12/20 04:39:08;;;;;;;5.47;2.10;;;6.00;99.90;;;;;;4926088;29;20233;-64
2023/12/20 04:41:34;;;;;;;5.27;2.17;;;6.00;99.90;;;;;;4926470;29;20490;-63
2023/12/20 04:44:00;;;;;;;4.80;1.73;;;5.90;99.90;;;;;;4927695;29;20295;-62
2023/12/20 04:46:26;;;;;;;5.70;2.20;;;5.90;99.90;;;;;;4930117;29;20216;-62
2023/12/20 04:48:51;;;;;;;4.90;1.90;;;5.90;99.90;;;;;;4936168;29;20921;-62
2023/12/20 04:51:17;;;;;;;5.13;1.90;;;5.80;99.90;;;;;;4927782;29;20279;-62
2023/12/20 04:53:43;;;;;;;3.17;1.60;;;5.70;99.90;;;;;;4936236;29;20186;-62
2023/12/20 04:56:08;;;;;;;9.90;1.93;;;5.80;99.90;;;;;;4928105;29;20249;-63
2023/12/20 04:58:34;;;;;;;7.70;1.93;;;5.70;99.90;;;;;;4925773;29;20208;-63
2023/12/20 05:00:59;;;;;;;7.73;2.37;;;5.70;99.90;;;;;;4932540;29;20624;-63
2023/12/20 05:03:25;;;;;;;3.77;2.40;;;5.70;99.90;;;;;;4927597;29;20247;-63
2023/12/20 05:05:51;;;;;;;7.30;2.07;;;5.70;99.90;;;;;;4924599;29;20271;-62
2023/12/20 05:08:16;;;;;;;7.87;2.77;;;5.80;99.90;;;;;;4927750;29;20198;-63
2023/12/20 05:10:42;;;;;;;7.57;2.30;;;5.80;99.90;;;;;;4923761;29;20263;-64
2023/12/20 05:13:07;;;;;;;6.80;3.47;;;5.80;99.90;;;;;;4926948;29;20184;-64
2023/12/20 05:15:33;;;;;;;7.43;2.40;;;5.90;99.90;;;;;;4926044;29;20558;-63
2023/12/20 05:17:59;;;;;;;12.40;3.20;;;5.90;99.90;;;;;;4930433;29;20181;-63
2023/12/20 05:20:24;;;;;;;12.43;2.80;;;5.90;99.90;;;;;;4923395;29;20179;-64
2023/12/20 05:22:50;;;;;;;8.03;2.80;;;5.80;99.90;;;;;;4931537;29;20672;-63
2023/12/20 05:25:15;;;;;;;13.03;4.40;;;5.80;99.90;;;;;;4926581;29;20207;-64
2023/12/20 05:27:41;;;;;;;3.70;2.80;;;5.80;99.90;;;;;;4922468;29;20236;-65
2023/12/20 05:30:07;;;;;;;4.73;2.00;;;5.70;99.90;;;;;;4927813;29;20192;-64
2023/12/20 05:32:32;;;;;;;7.17;2.50;;;5.60;99.90;;;;;;4920378;29;20284;-65
2023/12/20 05:34:58;;;;;;;6.27;2.90;;;5.60;99.90;;;;;;4930527;29;20427;-64
2023/12/20 05:37:24;;;;;;;6.30;2.60;;;5.50;99.90;;;;;;4922968;29;20183;-64
2023/12/20 05:39:49;;;;;;;3.73;1.70;;;5.50;99.90;;;;;;4916932;29;20685;-62
2023/12/20 05:42:15;;;;;;;3.37;2.37;;;5.50;99.90;;;;;;4931234;29;20186;-64
2023/12/20 05:44:40;;;;;;;5.67;2.37;;;5.40;99.90;;;;;;4934884;29;20171;-64
2023/12/20 05:47:06;;;;;;;4.93;2.73;;;5.40;99.90;;;;;;4923460;29;20222;-62
2023/12/20 05:49:31;;;;;;;10.00;2.33;;;5.40;99.90;;;;;;4924708;29;20211;-62
2023/12/20 05:51:57;;;;;;;4.60;2.33;;;5.40;99.90;;;;;;4929829;29;20564;-62
2023/12/20 05:54:23;;;;;;;12.60;3.17;;;5.30;99.90;;;;;;4925492;29;20202;-65
2023/12/20 05:56:48;;;;;;;4.23;2.50;;;5.20;99.90;;;;;;4917634;29;20518;-63
2023/12/20 05:59:14;;;;;;;6.10;2.13;;;5.20;99.90;;;;;;4921751;29;20473;-62
2023/12/20 06:01:39;;;;;;;11.63;2.63;;;5.20;99.90;;;;;;4945778;23;20223;-62
2023/12/20 06:04:05;;;;;;;4.67;1.90;;;5.20;99.90;;;;;;4930985;29;20183;-57
2023/12/20 06:06:31;;;;;;;4.90;2.00;;;5.20;99.90;;;;;;4921728;29;20203;-61
2023/12/20 06:08:57;;;;;;;4.07;2.13;;;5.20;99.90;;;;;;4924744;29;20188;-60
2023/12/20 06:11:23;;;;;;;5.23;2.10;;;5.20;99.90;;;;;;4928092;29;20183;-61
2023/12/20 06:13:51;;;;;;;7.23;2.67;;;5.20;99.90;;;;;;4914308;29;20186;-61
2023/12/20 06:16:18;;;;;;;5.40;2.47;;;5.30;99.90;;;;;;4917433;29;20801;-61
2023/12/20 06:18:43;;;;;;;4.60;2.50;;;5.20;99.90;;;;;;4915363;29;20438;-61
2023/12/20 06:21:12;;;;;;;8.90;3.30;;;5.20;99.90;;;;;;4911760;29;20427;-61
2023/12/20 06:23:38;;;;;;;7.87;2.20;;;5.10;99.90;;;;;;4916130;29;20191;-61
2023/12/20 06:26:04;;;;;;;9.63;1.97;;;5.20;99.90;;;;;;4916788;29;20463;-61
2023/12/20 06:28:29;;;;;;;9.40;2.77;;;5.10;99.90;;;;;;4919921;29;20680;-62
2023/12/20 06:30:55;;;;;;;7.73;2.03;;;5.10;99.90;;;;;;4917114;29;20187;-61
2023/12/20 06:33:22;;;;;;;8.97;3.60;;;5.10;99.90;;;;;;4916551;29;20545;-61
2023/12/20 06:35:48;;;;;;;7.70;3.00;;;5.20;99.90;;;;;;4916024;29;20188;-61
2023/12/20 06:38:13;;;;;;;4.40;2.30;;;5.20;99.90;;;;;;4921154;29;20431;-61
2023/12/20 06:40:39;;;;;;;7.60;2.43;;;5.20;99.90;;;;;;4917648;29;20233;-62
2023/12/20 06:43:06;;;;;;;2.27;1.70;;;5.30;99.90;;;;;;4919341;29;20211;-62
2023/12/20 06:45:32;;;;;;;5.07;2.47;;;5.30;99.90;;;;;;4918601;29;20290;-62
2023/12/20 06:47:58;;;;;;;5.63;2.77;;;5.30;99.90;;;;;;4916028;29;20516;-61
2023/12/20 06:50:24;;;;;;;9.60;2.93;;;5.20;99.90;;;;;;4920421;29;20215;-61
2023/12/20 06:52:49;;;;;;;11.27;2.43;;;5.20;99.90;;;;;;4916122;29;20213;-61
2023/12/20 06:55:15;;;;;;;5.10;2.20;;;5.20;99.90;;;;;;4919715;29;20427;-63
2023/12/20 06:57:41;;;;;;;8.50;2.10;;;5.30;99.90;;;;;;4915660;29;20621;-62
2023/12/20 07:00:08;;;;;;;3.97;2.03;;;5.30;99.90;;;;;;4915924;29;20196;-62
2023/12/20 07:02:34;;;;;;;4.87;2.13;;;5.30;99.90;;;;;;4918740;29;20220;-62
2023/12/20 07:05:00;;;;;;;5.10;2.20;;;5.30;99.90;;;;;;4915899;29;20431;-62
2023/12/20 07:07:26;;;;;;;4.30;1.90;;;5.30;99.90;;;;;;4915717;29;20293;-61
2023/12/20 07:09:51;;;;;;;4.37;2.07;;;5.30;99.90;;;;;;4920260;29;20190;-62
2023/12/20 07:12:19;;;;;;;10.57;2.50;;;5.30;99.90;;;;;;4918488;29;20448;-61
2023/12/20 07:14:45;;;;;;;8.93;2.17;;;5.30;99.90;;;;;;4915763;29;20321;-62
2023/12/20 07:17:13;;;;;;;8.70;2.50;;;5.40;99.90;;;;;;4924502;29;20428;-62
2023/12/20 07:19:39;;;;;;;12.60;4.07;;;5.40;99.90;;;;;;4915637;29;21102;-62
2023/12/20 07:22:06;;;;;;;8.70;3.63;;;5.50;99.90;;;;;;4915651;29;20451;-62
2023/12/20 07:24:32;;;;;;;5.87;3.57;;;5.50;99.90;;;;;;4915556;29;20447;-62
2023/12/20 07:26:59;;;;;;;9.10;3.60;;;5.50;99.90;;;;;;4917802;29;20467;-62
2023/12/20 07:29:25;;;;;;;9.57;2.80;;;5.50;99.90;;;;;;4916622;29;20800;-62
2023/12/20 07:31:51;;;;;;;4.23;3.07;;;5.60;99.90;;;;;;4915165;29;20444;-60
2023/12/20 07:34:17;;;;;;;9.27;3.40;;;5.60;99.90;;;;;;4915187;29;20195;-62
2023/12/20 07:36:43;;;;;;;2.73;2.20;;;5.60;99.90;;;;;;4915446;29;20478;-62
2023/12/20 07:39:08;;;;;;;5.77;2.30;;;5.80;99.90;;;;;;4915308;29;20618;-62
2023/12/20 07:41:34;;;;;;;10.00;3.37;;;5.80;99.90;;;;;;4917297;29;20211;-62
2023/12/20 07:44:00;;;;;;;3.40;2.10;;;5.70;99.90;;;;;;4915708;29;20600;-62
2023/12/20 07:46:25;;;;;;;10.97;2.80;;;5.70;99.90;;;;;;4915309;29;20211;-62
2023/12/20 07:48:51;;;;;;;3.77;2.13;;;5.70;99.90;;;;;;4910186;29;20619;-62
2023/12/20 07:51:17;;;;;;;6.20;2.67;;;5.80;99.90;;;;;;4914056;29;20192;-62
2023/12/20 07:53:43;;;;;;;9.07;4.00;;;5.70;99.90;;;;;;4907018;29;20243;-62
2023/12/20 07:56:19;;;;;;;9.50;3.83;;;5.80;99.90;;;;;;4913211;29;20936;-62
2023/12/20 07:58:45;;;;;;;9.80;3.53;;;5.80;99.90;;;;;;4914865;29;20674;-64
2023/12/20 08:01:11;;;;;;;9.33;3.60;;;5.80;99.90;;;;;;4904561;29;20427;-62
2023/12/20 08:03:37;;;;;;;15.17;4.23;;;5.90;99.90;;;;;;4905519;29;20487;-62
2023/12/20 08:06:03;;;;;;;10.37;3.60;;;5.80;99.90;;;;;;4914400;29;20516;-61
2023/12/20 08:08:29;;;;;;;14.20;3.00;;;5.90;99.90;;;;;;4915134;29;20424;-62
2023/12/20 08:10:54;;;;;;;5.77;2.10;;;5.90;99.90;;;;;;4910220;29;20435;-62
2023/12/20 08:13:24;;;;;;;8.93;2.47;;;5.80;99.90;;;;;;4907222;29;20239;-64
2023/12/20 08:15:50;;;;;;;9.10;3.50;;;5.80;99.90;;;;;;4912473;29;20196;-62
2023/12/20 08:18:16;;;;;;;6.43;2.27;;;5.80;99.90;;;;;;4907935;29;20428;-62
2023/12/20 08:20:41;;;;;;;2.73;1.83;;;5.80;99.90;;;;;;4915148;29;20181;-61
2023/12/20 08:23:07;;;;;;;4.10;1.70;;;5.80;99.90;;;;;;4913535;29;20316;-61
2023/12/20 08:25:32;;;;;;;4.60;1.80;;;5.80;99.90;;;;;;4911768;29;20204;-61
2023/12/20 08:27:58;;;;;;;3.63;1.80;;;5.80;99.90;;;;;;4909041;29;20180;-61
2023/12/20 08:30:24;;;;;;;5.77;2.77;;;5.80;99.90;;;;;;4905648;29;20180;-61
2023/12/20 08:32:51;;;;;;;8.00;2.60;;;5.80;99.90;;;;;;4901978;29;20205;-62
2023/12/20 08:35:17;;;;;;;10.60;2.50;;;5.80;99.90;;;;;;4904747;29;20471;-62
2023/12/20 08:37:43;;;;;;;4.00;1.77;;;5.80;99.90;;;;;;4905504;29;20926;-62
2023/12/20 08:40:09;;;;;;;10.33;2.33;;;5.80;99.90;;;;;;4902537;29;20425;-62
2023/12/20 08:42:35;;;;;;;4.70;2.10;;;5.90;99.90;;;;;;4912987;29;20714;-60
2023/12/20 08:45:00;;;;;;;3.87;2.00;;;5.90;99.90;;;;;;4915423;29;20507;-62
2023/12/20 08:47:26;;;;;;;8.43;3.13;;;5.90;99.90;;;;;;4906574;29;20184;-63
2023/12/20 08:49:56;;;;;;;6.50;2.20;;;6.00;99.90;;;;;;4914866;29;20218;-62
2023/12/20 08:52:23;;;;;;;7.80;2.50;;;6.00;99.90;;;;;;4915042;29;20563;-65
2023/12/20 08:54:48;;;;;;;14.77;2.40;;;6.00;99.90;;;;;;4912857;29;20563;-64
2023/12/20 08:57:14;;;;;;;7.30;1.90;;;6.10;99.90;;;;;;4915471;29;20454;-64
2023/12/20 08:59:39;;;;;;;8.83;2.00;;;6.10;99.90;;;;;;4915799;29;20179;-62
2023/12/20 09:02:05;;;;;;;7.50;3.00;;;6.10;99.90;;;;;;4916631;29;20702;-66
2023/12/20 09:04:31;;;;;;;3.60;1.77;;;6.10;99.90;;;;;;4913093;29;20268;-65
2023/12/20 09:06:59;;;;;;;4.40;2.07;;;6.20;99.90;;;;;;4918004;29;20202;-62
2023/12/20 09:09:25;;;;;;;7.30;2.03;;;6.30;99.90;;;;;;4917962;29;20671;-64
2023/12/20 09:11:51;;;;;;;8.30;2.40;;;6.30;99.90;;;;;;4915767;29;20439;-64
2023/12/20 09:14:16;;;;;;;8.07;2.03;;;6.40;99.90;;;;;;4924264;29;20187;-62
2023/12/20 09:16:42;;;;;;;3.80;1.93;;;6.50;99.90;;;;;;4908737;29;20483;-63
2023/12/20 09:19:08;;;;;;;6.70;3.60;;;6.60;99.90;;;;;;4918077;29;20332;-61
2023/12/20 09:21:33;;;;;;;5.90;1.90;;;6.50;99.90;;;;;;4920305;29;20214;-62
2023/12/20 09:23:59;;;;;;;3.30;1.73;;;6.50;99.90;;;;;;4910299;29;20188;-62
2023/12/20 09:26:24;;;;;;;10.70;2.40;;;6.60;99.90;;;;;;4917825;29;20203;-61
2023/12/20 09:28:50;;;;;;;12.80;3.20;;;6.50;99.90;;;;;;4918281;29;20176;-62
2023/12/20 09:31:16;;;;;;;10.23;1.80;;;6.50;99.90;;;;;;4914982;29;20615;-61
2023/12/20 09:33:41;;;;;;;4.43;2.07;;;6.50;99.90;;;;;;4904392;29;20216;-61
2023/12/20 09:36:07;;;;;;;13.07;2.43;;;6.50;99.90;;;;;;4911280;29;20248;-62
2023/12/20 09:38:33;;;;;;;12.23;3.17;;;6.40;99.90;;;;;;4916362;29;20191;-61
2023/12/20 09:40:58;;;;;;;6.50;1.90;;;6.40;99.90;;;;;;4917565;29;20187;-61
2023/12/20 09:43:29;;;;;;;7.57;1.93;;;6.50;99.90;;;;;;4912160;29;20618;-61
2023/12/20 09:46:02;;;;;;;5.47;2.07;;;6.50;99.90;;;;;;4914429;29;20286;-61
2023/12/20 09:48:28;;;;;;;5.60;2.50;;;6.50;99.90;;;;;;4907315;29;20429;-61
2023/12/20 09:50:54;;;;;;;3.83;2.23;;;6.50;99.90;;;;;;4907955;29;20775;-61
2023/12/20 09:53:23;;;;;;;12.53;2.37;;;6.50;99.90;;;;;;4907528;29;20500;-60
2023/12/20 09:55:49;;;;;;;5.30;2.50;;;6.50;99.90;;;;;;4908357;29;20428;-61
2023/12/20 09:58:15;;;;;;;3.47;2.10;;;6.50;99.90;;;;;;4921103;29;20999;-61
2023/12/20 10:00:40;;;;;;;17.20;2.60;;;6.50;99.90;;;;;;4915460;29;20416;-62
2023/12/20 10:03:07;;;;;;;7.10;2.10;;;6.50;99.90;;;;;;4910209;29;20452;-60
2023/12/20 10:05:34;;;;;;;6.77;2.20;;;6.50;99.90;;;;;;4906641;29;20201;-61
2023/12/20 10:08:00;;;;;;;4.80;2.23;;;6.50;99.90;;;;;;4910646;29;20425;-62
2023/12/20 10:10:26;;;;;;;7.40;2.50;;;6.50;99.90;;;;;;4908948;29;20476;-62
2023/12/20 10:13:07;;;;;;;18.33;3.20;;;6.50;99.90;;;;;;4907864;29;20884;-61
2023/12/20 10:15:34;;;;;;;7.30;2.87;;;6.60;99.90;;;;;;4907885;29;20422;-60
2023/12/20 10:18:01;;;;;;;5.13;2.03;;;6.60;99.90;;;;;;4905758;29;20412;-61
2023/12/20 10:20:28;;;;;;;5.27;2.10;;;6.60;99.90;;;;;;4907686;29;20417;-61
2023/12/20 10:22:57;;;;;;;6.43;2.37;;;6.60;99.90;;;;;;4909469;29;20447;-62
2023/12/20 10:25:24;;;;;;;7.27;2.10;;;6.60;99.90;;;;;;4902119;29;20504;-61
2023/12/20 10:27:57;;;;;;;9.80;1.97;;;6.60;99.90;;;;;;4904898;29;20422;-62
2023/12/20 10:30:24;;;;;;;4.90;1.83;;;6.60;99.90;;;;;;4905464;29;20423;-61
2023/12/20 10:32:51;;;;;;;7.80;2.27;;;6.60;99.90;;;;;;4911649;29;20432;-61
2023/12/20 10:35:16;;;;;;;6.17;2.70;;;6.60;99.90;;;;;;4904782;29;20428;-60
2023/12/20 10:37:42;;;;;;;8.50;3.20;;;6.60;99.90;;;;;;4916081;29;20428;-60
2023/12/20 10:40:08;;;;;;;5.57;2.60;;;6.60;99.90;;;;;;4912456;29;20203;-60
2023/12/20 10:42:36;;;;;;;6.23;2.50;;;6.60;99.90;;;;;;4910462;29;20199;-61
2023/12/20 10:45:01;;;;;;;5.30;2.43;;;6.70;99.90;;;;;;4916866;29;20792;-61
2023/12/20 10:47:29;;;;;;;6.70;2.33;;;6.70;99.90;;;;;;4908756;29;20420;-61
2023/12/20 10:49:56;;;;;;;7.17;2.40;;;6.70;99.90;;;;;;4920801;29;20220;-60
2023/12/20 10:52:24;;;;;;;6.63;2.20;;;6.70;99.90;;;;;;4917171;29;20445;-60
2023/12/20 10:54:50;;;;;;;4.50;1.77;;;6.80;99.90;;;;;;4923449;29;20854;-61
2023/12/20 10:57:18;;;;;;;9.50;2.20;;;6.80;99.90;;;;;;4916466;29;20507;-61
2023/12/20 10:59:49;;;;;;;6.00;2.13;;;6.80;99.90;;;;;;4920439;29;20235;-61
2023/12/20 11:02:14;;;;;;;8.70;2.10;;;6.80;99.90;;;;;;4922855;29;20475;-61
2023/12/20 11:04:47;;;;;;;11.90;2.00;;;6.80;99.90;;;;;;4917060;29;20420;-61
2023/12/20 11:07:32;;;;;;;9.53;2.30;;;6.80;99.90;;;;;;4909331;29;20246;-60
2023/12/20 11:10:02;;;;;;;8.47;2.20;;;6.80;99.90;;;;;;4908285;29;20855;-62
2023/12/20 11:12:48;;;;;;;6.60;2.40;;;6.80;99.90;;;;;;4917849;29;20612;-61
2023/12/20 11:15:16;;;;;;;3.17;1.73;;;6.90;99.90;;;;;;4910015;29;20795;-60
2023/12/20 11:17:46;;;;;;;4.47;2.37;;;6.80;99.90;;;;;;4913481;29;20426;-64
2023/12/20 11:20:12;;;;;;;29.17;16.93;;;6.80;99.90;;;;;;4906843;29;20453;-61
2023/12/20 11:22:41;;;;;;;14.60;7.00;;;6.90;99.90;;;;;;4902063;29;20444;-61
2023/12/20 11:25:08;;;;;;;13.17;3.40;;;6.80;99.90;;;;;;4903658;29;20897;-60
2023/12/20 11:27:34;;;;;;;4.00;2.17;;;6.80;99.90;;;;;;4911367;29;20417;-61
2023/12/20 11:30:03;;;;;;;5.83;2.70;;;6.80;99.90;;;;;;4915791;29;20433;-58
2023/12/20 11:32:29;;;;;;;9.57;2.83;;;6.80;99.90;;;;;;4920127;29;20534;-58
2023/12/20 11:35:00;;;;;;;7.43;2.97;;;6.80;99.90;;;;;;4916143;29;20503;-59
2023/12/20 11:37:35;;;;;;;6.60;2.20;;;6.80;99.90;;;;;;4905531;29;20206;-60
2023/12/20 11:40:11;;;;;;;8.80;2.60;;;6.70;99.90;;;;;;4907525;29;20986;-61
2023/12/20 11:42:49;;;;;;;4.33;2.77;;;6.70;99.90;;;;;;4907916;29;20856;-61
2023/12/20 11:45:24;;;;;;;6.33;2.80;;;6.70;99.90;;;;;;4917453;29;20445;-61
2023/12/20 11:47:50;;;;;;;5.23;2.23;;;6.70;99.90;;;;;;4902788;29;20455;-62
2023/12/20 11:50:17;;;;;;;6.13;2.43;;;6.80;99.90;;;;;;4904442;29;20980;-62
2023/12/20 11:52:43;;;;;;;5.20;3.03;;;6.90;99.90;;;;;;4912760;29;20980;-62
2023/12/20 11:55:09;;;;;;;9.43;3.27;;;6.90;99.90;;;;;;4913049;29;20445;-61
2023/12/20 11:57:35;;;;;;;10.20;2.77;;;6.80;99.90;;;;;;4915436;29;20570;-60
2023/12/20 12:00:02;;;;;;;6.93;2.37;;;6.80;99.90;;;;;;4909676;29;20176;-62
2023/12/20 12:02:28;;;;;;;8.20;3.00;;;6.80;99.90;;;;;;4906658;29;20461;-61
2023/12/20 12:04:54;;;;;;;5.80;2.43;;;6.80;99.90;;;;;;4911328;29;20421;-61
2023/12/20 12:07:22;;;;;;;9.97;2.37;;;6.90;99.90;;;;;;4921354;29;20212;-61
2023/12/20 12:09:48;;;;;;;6.37;2.50;;;6.90;99.90;;;;;;4916049;29;20419;-61
2023/12/20 12:12:14;;;;;;;5.13;2.17;;;7.00;99.90;;;;;;4911220;29;20438;-62
2023/12/20 12:14:40;;;;;;;2.50;1.77;;;6.90;99.90;;;;;;4905453;29;20416;-62
2023/12/20 12:17:15;;;;;;;3.43;1.87;;;6.90;99.90;;;;;;4912479;29;20470;-62
2023/12/20 12:19:42;;;;;;;4.30;2.00;;;6.90;99.90;;;;;;4910201;29;20412;-61
2023/12/20 12:22:14;;;;;;;3.47;1.73;;;7.00;99.90;;;;;;4918798;29;20538;-62
2023/12/20 12:24:47;;;;;;;7.00;2.53;;;7.00;99.90;;;;;;4915463;29;20425;-63
2023/12/20 12:27:13;;;;;;;6.00;2.63;;;6.90;99.90;;;;;;4908358;29;20549;-61
2023/12/20 12:29:39;;;;;;;5.37;2.27;;;7.00;99.90;;;;;;4904131;29;20436;-60
2023/12/20 12:32:08;;;;;;;6.23;2.03;;;6.90;99.90;;;;;;4914205;29;20452;-60
2023/12/20 12:34:35;;;;;;;5.10;2.37;;;6.90;99.90;;;;;;4912000;29;20431;-61
2023/12/20 12:37:01;;;;;;;4.70;3.00;;;6.80;99.90;;;;;;4921106;29;20421;-60
2023/12/20 12:39:27;;;;;;;5.43;1.80;;;6.70;99.90;;;;;;4911308;29;20421;-63
2023/12/20 12:41:53;;;;;;;5.23;2.57;;;6.60;99.90;;;;;;4921458;29;20977;-61
2023/12/20 12:44:19;;;;;;;7.00;2.13;;;6.60;99.90;;;;;;4923712;29;20185;-61
2023/12/20 12:46:46;;;;;;;5.30;2.00;;;6.50;99.90;;;;;;4918530;29;20475;-61
2023/12/20 12:49:12;;;;;;;4.40;1.90;;;6.50;99.90;;;;;;4917405;29;20412;-61
2023/12/20 12:51:38;;;;;;;4.33;2.37;;;6.40;99.90;;;;;;4898599;29;20464;-60